• Join FlightAware (Why Join?)
  • Login
  • US Flag 
09:46AM EDT


 

Airport Tracker/Info


-or-


 

Live Flight TrackerFlight Track Log ✈ SWA565 ✈ 11-Apr-2013 ✈ KBWI - KBNA

Flight Track Log - Related Links

Times and Time Zones

All times are in EDT time to prevent confusion due to time zone crossing. See the SWA565 flight status page for this flight to view local times or setup timezone preferences in your user account.

Time Position Orientation Groundspeed Altitude Reporting Facility
EDT Latitude Longitude Course Direction KTS MPH feet Rate Location/Type
10:26PM 39.1500 -76.6667 270° West 147 169 1,300  Level Potomac TRACON
10:27PM 39.1500 -76.7000 270° West 214 246 4,400 2,700 Climbing Potomac TRACON
10:28PM 39.1833 -76.7833 297° West 276 318 6,700 2,940 Climbing Potomac TRACON
10:30PM 39.2142 -76.9606 283° West 297 342 13,100 3,420 Climbing Washington Center
10:31PM 39.2128 -77.0650 269° West 292 336 16,700 3,600 Climbing Washington Center
10:32PM 39.1969 -77.1664 259° West 292 336 20,400 3,120 Climbing Washington Center
10:33PM 39.1294 -77.2292 216° Southwest 271 312 23,000 1,260 Climbing Washington Center
10:34PM 39.0597 -77.2997 218° Southwest 295 339 23,000 120 Level Washington Center
10:35PM 39.0331 -77.4114 253° West 302 348 23,300 1,500 Climbing Washington Center
10:36PM 39.0017 -77.5522 254° West 331 381 26,000 2,040 Climbing Washington Center
10:37PM 38.9769 -77.6664 254° West 380 437 27,400 1,200 Climbing Washington Center
10:38PM 38.9450 -77.8069 254° West 380 437 28,400 1,080 Climbing Washington Center
10:39PM 38.9156 -77.9394 254° West 380 437 29,600 1,500 Climbing Washington Center
10:40PM 38.8836 -78.0717 253° West 391 450 31,500 1,200 Climbing Washington Center
10:41PM 38.8558 -78.2094 256° West 397 457 32,000 300 Climbing Washington Center
10:42PM 38.8506 -78.3531 267° West 402 463 32,100  Climbing Washington Center
10:43PM 38.8494 -78.4836 269° West 408 470 32,000 -60 Descending Washington Center
10:44PM 38.8458 -78.6328 268° West 413 475 32,000  Level Washington Center
10:45PM 38.8442 -78.7794 269° West 418 481 32,000 480 Level Washington Center
10:46PM 38.8422 -78.9258 269° West 418 481 33,000 1,560 Climbing Washington Center
10:47PM 38.8419 -79.0778 270° West 418 481 35,200 1,920 Climbing Washington Center
10:48PM 38.8336 -79.2186 266° West 418 481 36,900 1,380 Climbing Washington Center
10:49PM 38.8106 -79.3589 258° West 413 475 38,000 540 Climbing Washington Center
10:50PM 38.7833 -79.4933 255° West 403 464 38,000  Level Washington Center
10:51PM 38.7664 -79.6333 261° West 403 464 38,000  Level Washington Center
10:53PM 38.7156 -79.8872 256° West 388 447 38,100  Climbing Indianapolis Center
10:54PM 38.6900 -80.0217 256° West 389 448 38,000  Descending Indianapolis Center
10:55PM 38.6644 -80.1556 256° West 387 445 38,100  Climbing Indianapolis Center
10:56PM 38.6394 -80.2914 257° West 391 450 38,000 -60 Descending Indianapolis Center
10:57PM 38.6081 -80.4531 256° West 389 448 38,000  Level Indianapolis Center
10:58PM 38.5844 -80.5892 258° West 391 450 38,100  Climbing Indianapolis Center
10:59PM 38.5569 -80.7242 255° West 393 452 38,100 -60 Level Indianapolis Center
11:00PM 38.5311 -80.8589 256° West 390 449 38,000  Descending Indianapolis Center
11:01PM 38.5042 -80.9922 256° West 387 445 38,100  Climbing Indianapolis Center
11:02PM 38.4786 -81.1250 256° West 385 443 38,100 -60 Level Indianapolis Center
11:03PM 38.4522 -81.2578 256° West 383 441 38,000  Descending Indianapolis Center
11:04PM 38.4256 -81.3889 255° West 379 436 38,100  Climbing Indianapolis Center
11:05PM 38.4000 -81.5211 256° West 379 436 38,100 -60 Level Indianapolis Center
11:06PM 38.3739 -81.6517 256° West 378 435 38,000  Descending Indianapolis Center
11:07PM 38.3472 -81.7808 255° West 375 432 38,100  Climbing Indianapolis Center
11:08PM 38.3117 -81.9067 250° West 376 433 38,000  Descending Indianapolis Center
11:09PM 38.2761 -82.0333 250° West 379 436 38,100  Climbing Indianapolis Center
11:10PM 38.2397 -82.1594 250° West 379 436 38,100  Level Indianapolis Center
11:11PM 38.1825 -82.3019 243° Southwest 376 433 38,100  Level Indianapolis Center
11:12PM 38.1319 -82.4175 241° Southwest 373 429 38,100  Level Indianapolis Center
11:13PM 38.0800 -82.5339 240° Southwest 370 426 38,100  Level Indianapolis Center
11:14PM 38.0300 -82.6472 241° Southwest 370 426 38,100 -300 Level Indianapolis Center
11:15PM 37.9800 -82.7600 241° Southwest 369 425 37,600 -840 Descending Indianapolis Center
11:16PM 37.9306 -82.8722 241° Southwest 366 421 36,500 -840 Descending Indianapolis Center
11:17PM 37.8819 -82.9797 240° Southwest 357 411 36,000 -300 Descending Indianapolis Center
11:18PM 37.8331 -83.0886 240° Southwest 358 412 36,000  Level Indianapolis Center
11:20PM 37.7758 -83.2144 240° Southwest 354 407 36,000  Level Indianapolis Center
11:21PM 37.7303 -83.3186 241° Southwest 346 398 36,000 -360 Level Indianapolis Center
11:22PM 37.6844 -83.4192 240° Southwest 336 387 35,300 -840 Descending Indianapolis Center
11:23PM 37.6381 -83.5200 240° Southwest 334 384 34,400 -660 Descending Indianapolis Center
11:24PM 37.5894 -83.6256 240° Southwest 344 396 34,000 -300 Descending Indianapolis Center
11:25PM 37.5414 -83.7303 240° Southwest 346 398 33,800 -540 Descending Indianapolis Center
11:26PM 37.4931 -83.8356 240° Southwest 348 400 33,000 -840 Descending Indianapolis Center
11:27PM 37.4383 -83.9553 240° Southwest 382 440 32,200 -900 Descending Indianapolis Center
11:28PM 37.3722 -84.0975 240° Southwest 400 460 31,200 -1,020 Descending Indianapolis Center
11:29PM 37.3142 -84.2222 240° Southwest 409 471 30,200 -1,020 Descending Indianapolis Center
11:30PM 37.2564 -84.3472 240° Southwest 414 476 29,200 -960 Descending Indianapolis Center
11:31PM 37.1964 -84.4733 239° Southwest 419 482 28,300 -960 Descending Indianapolis Center
11:32PM 37.1369 -84.6011 240° Southwest 423 487 27,300 -1,080 Descending Indianapolis Center
11:33PM 37.0786 -84.7267 240° Southwest 418 481 26,200 -1,080 Descending Indianapolis Center
11:34PM 37.0164 -84.8578 239° Southwest 403 464 25,100 -1,080 Descending Indianapolis Center
11:35PM 36.9622 -84.9719 239° Southwest 388 447 24,000 -1,140 Descending Indianapolis Center
11:36PM 36.9100 -85.0808 239° Southwest 371 427 22,900 -1,020 Descending Indianapolis Center
11:37PM 36.8631 -85.1803 239° Southwest 341 392 22,000 -480 Descending Indianapolis Center
11:38PM 36.8200 -85.2683 239° Southwest 305 351 22,000  Level Indianapolis Center
11:39PM 36.7767 -85.3569 239° Southwest 302 348 22,000  Level Indianapolis Center
11:40PM 36.7172 -85.4806 239° Southwest 312 359 22,000 -240 Level Memphis Center
11:41PM 36.6728 -85.5736 239° Southwest 317 365 21,600 -720 Descending Memphis Center
11:42PM 36.6300 -85.6511 235° Southwest 323 372 20,600 -1,260 Descending Memphis Center
11:43PM 36.5894 -85.7389 240° Southwest 310 357 19,100 -2,040 Descending Memphis Center
11:44PM 36.5453 -85.8369 241° Southwest 305 351 16,600 -2,100 Descending Memphis Center
11:45PM 36.4964 -85.9247 235° Southwest 305 351 14,900 -1,380 Descending Memphis Center
11:46PM 36.4300 -85.9981 222° Southwest 311 358 13,900 -1,140 Descending Memphis Center
11:47PM 36.3742 -86.0656 224° Southwest 321 369 12,700 -1,260 Descending Memphis Center
11:48PM 36.3139 -86.1383 224° Southwest 315 362 11,400 -1,260 Descending Memphis Center
11:49PM 36.2600 -86.2053 225° Southwest 288 331 10,200 -1,380 Descending Memphis Center
11:50PM 36.2058 -86.2672 223° Southwest 278 320 8,700 -1,440 Descending Memphis Center
11:51PM 36.1514 -86.3292 223° Southwest 271 312 7,400 -1,200 Descending Memphis Center
11:52PM 36.0953 -86.3936 223° Southwest 261 300 6,400 -960 Descending Memphis Center
11:53PM 36.0508 -86.4419 221° Southwest 232 267 5,500 -1,560 Descending Memphis Center
11:54PM 36.0147 -86.4847 224° Southwest 207 238 3,300 -1,500 Descending Memphis Center
11:55PM 36.0206 -86.5383 278° West 161 185 2,600 -360 Descending Memphis Center
11:56PM 36.0467 -86.5756 311° West 135 155 2,600 -420 Level Memphis Center
11:58PM 36.0833 -86.6333 308° West 118 136 1,600 -660 Descending Nashville TRACON
11:59PM 36.1167 -86.6500 338° Northwest 115 132 900 -720 Descending Nashville TRACON
12:01AM 36.1167 -86.6667 287° West  Level FlightAware Approximate